createdAt,value
2023-02-19T00:01:16.017Z,48.10
2023-02-19T00:04:19.675Z,48.09
2023-02-19T00:07:21.698Z,48.12
2023-02-19T00:10:23.713Z,48.10
2023-02-19T00:13:25.747Z,48.09
2023-02-19T00:16:35.988Z,48.10
2023-02-19T00:19:38.078Z,48.08
2023-02-19T00:22:40.182Z,48.12
2023-02-19T00:25:42.206Z,48.09
2023-02-19T00:28:44.506Z,48.14
2023-02-19T00:31:47.089Z,48.10
2023-02-19T00:34:49.230Z,48.16
2023-02-19T00:37:51.325Z,48.18
2023-02-19T00:40:53.429Z,48.15
2023-02-19T00:44:00.963Z,48.21
2023-02-19T00:47:03.102Z,48.23
2023-02-19T00:50:05.336Z,48.20
2023-02-19T00:53:07.406Z,48.21
2023-02-19T00:56:09.860Z,48.21
2023-02-19T00:59:11.975Z,48.20
2023-02-19T01:02:14.229Z,48.18
2023-02-19T01:05:16.330Z,48.19
2023-02-19T01:08:18.537Z,48.22
2023-02-19T01:11:20.589Z,48.23
2023-02-19T01:14:22.657Z,48.23
2023-02-19T01:17:24.713Z,48.21
2023-02-19T01:20:27.259Z,48.20
2023-02-19T01:23:29.328Z,48.25
2023-02-19T01:26:33.307Z,48.23
2023-02-19T01:29:35.454Z,48.23
2023-02-19T01:32:37.620Z,48.25
2023-02-19T01:35:40.305Z,48.25
2023-02-19T01:38:42.631Z,48.23
2023-02-19T01:41:44.709Z,48.20
2023-02-19T01:44:46.750Z,48.22
2023-02-19T01:47:54.651Z,48.21
2023-02-19T01:51:09.220Z,48.21
2023-02-19T01:54:13.482Z,48.18
2023-02-19T01:57:26.470Z,48.17
2023-02-19T02:00:28.747Z,48.24
2023-02-19T02:03:31.324Z,48.13
2023-02-19T02:06:44.700Z,48.15
2023-02-19T02:10:05.528Z,48.12
2023-02-19T02:13:07.583Z,48.11
2023-02-19T02:16:34.117Z,48.12
2023-02-19T02:20:00.637Z,48.08
2023-02-19T02:23:14.410Z,48.12
2023-02-19T02:26:24.763Z,48.10
2023-02-19T02:29:26.792Z,48.10
2023-02-19T02:32:38.298Z,48.15
2023-02-19T02:35:48.156Z,48.13
2023-02-19T02:38:52.794Z,48.14
2023-02-19T02:42:18.115Z,48.14
2023-02-19T02:45:36.795Z,48.15
2023-02-19T02:49:03.400Z,48.15
2023-02-19T02:52:25.653Z,48.14
2023-02-19T02:55:32.674Z,48.15
2023-02-19T02:58:35.653Z,48.20
2023-02-19T03:02:11.337Z,48.18
2023-02-19T03:05:39.531Z,48.17
2023-02-19T03:08:46.245Z,48.18
2023-02-19T03:12:11.150Z,48.21
2023-02-19T03:15:34.418Z,48.22
2023-02-19T03:18:59.361Z,48.26
2023-02-19T03:22:19.909Z,48.25
2023-02-19T03:25:48.750Z,48.28
2023-02-19T03:29:11.460Z,48.23
2023-02-19T03:32:21.189Z,48.32
2023-02-19T03:35:31.464Z,48.35
2023-02-19T03:38:47.993Z,48.29
2023-02-19T03:42:01.691Z,48.34
2023-02-19T03:45:19.478Z,48.33
2023-02-19T03:48:31.776Z,48.31
2023-02-19T03:51:53.863Z,48.33
2023-02-19T03:55:25.823Z,48.32
2023-02-19T03:58:40.089Z,48.37
2023-02-19T04:01:55.267Z,48.37
2023-02-19T04:05:25.892Z,48.37
2023-02-19T04:08:30.314Z,48.37
2023-02-19T04:11:33.296Z,48.40
2023-02-19T04:15:00.772Z,48.40
2023-02-19T04:18:09.123Z,48.41
2023-02-19T04:21:11.677Z,48.41
2023-02-19T04:24:26.326Z,48.44
2023-02-19T04:27:28.611Z,48.41
2023-02-19T04:30:30.757Z,48.41
2023-02-19T04:33:32.884Z,48.42
2023-02-19T04:36:34.998Z,48.47
2023-02-19T04:39:37.056Z,48.46
2023-02-19T04:42:39.248Z,48.47
2023-02-19T04:45:41.287Z,48.44
2023-02-19T04:48:43.417Z,48.45
2023-02-19T04:51:45.515Z,48.45
2023-02-19T04:54:47.589Z,48.46
2023-02-19T04:57:49.790Z,48.48
2023-02-19T05:00:53.082Z,48.48
2023-02-19T05:03:55.160Z,48.48
2023-02-19T05:06:57.226Z,48.52
2023-02-19T05:09:59.813Z,48.45
2023-02-19T05:13:01.883Z,48.53
2023-02-19T05:16:09.940Z,48.51
2023-02-19T05:19:12.551Z,48.50
2023-02-19T05:22:14.608Z,48.53
2023-02-19T05:25:16.903Z,48.57
2023-02-19T05:28:19.239Z,48.56
2023-02-19T05:31:21.528Z,48.51
2023-02-19T05:34:23.778Z,48.56
2023-02-19T05:37:25.828Z,48.50
2023-02-19T05:40:27.945Z,48.50
2023-02-19T05:43:30.061Z,48.53
2023-02-19T05:46:32.423Z,48.53
2023-02-19T05:49:34.572Z,48.53
2023-02-19T05:52:36.676Z,48.56
2023-02-19T05:55:38.730Z,48.51
2023-02-19T05:58:40.775Z,48.43
2023-02-19T06:01:43.288Z,48.37
2023-02-19T06:04:45.360Z,48.37
2023-02-19T06:07:50.313Z,48.41
2023-02-19T06:10:52.398Z,48.34
2023-02-19T06:13:54.495Z,48.25
2023-02-19T06:16:56.559Z,48.09
2023-02-19T06:19:58.741Z,47.99
2023-02-19T06:23:00.871Z,47.99
2023-02-19T06:26:07.849Z,47.92
2023-02-19T06:29:09.937Z,47.84
2023-02-19T06:32:12.150Z,47.88
2023-02-19T06:35:14.389Z,47.87
2023-02-19T06:38:16.673Z,47.88
2023-02-19T06:41:18.885Z,47.84
2023-02-19T06:44:21.249Z,47.74
2023-02-19T06:47:25.444Z,47.73
2023-02-19T06:50:27.591Z,47.76
2023-02-19T06:53:29.889Z,47.74
2023-02-19T06:56:35.908Z,47.79
2023-02-19T06:59:37.995Z,47.82
2023-02-19T07:02:40.063Z,47.83
2023-02-19T07:05:43.776Z,47.80
2023-02-19T07:08:46.023Z,47.66
2023-02-19T07:11:48.259Z,47.61
2023-02-19T07:14:50.433Z,47.60
2023-02-19T07:17:52.506Z,47.57
2023-02-19T07:20:54.763Z,47.74
2023-02-19T07:23:57.593Z,47.84
2023-02-19T07:26:59.688Z,47.85
2023-02-19T07:30:02.571Z,47.89
2023-02-19T07:33:04.701Z,47.85
2023-02-19T07:36:09.951Z,47.67
2023-02-19T07:39:13.673Z,47.57
2023-02-19T07:42:15.918Z,47.59
2023-02-19T07:45:18.070Z,47.53
2023-02-19T07:48:20.581Z,47.59
2023-02-19T07:51:22.771Z,47.50
2023-02-19T07:54:24.903Z,47.44
2023-02-19T07:57:29.489Z,47.34
2023-02-19T08:00:31.509Z,47.21
2023-02-19T08:03:33.905Z,47.12
2023-02-19T08:06:36.052Z,47.11
2023-02-19T08:09:38.156Z,47.09
2023-02-19T08:12:58.994Z,47.13
2023-02-19T08:16:16.947Z,47.15
2023-02-19T08:19:22.691Z,47.49
2023-02-19T08:22:24.802Z,48.44
2023-02-19T08:25:27.084Z,48.58
2023-02-19T08:28:30.421Z,48.78
2023-02-19T08:31:36.040Z,48.76
2023-02-19T08:34:38.222Z,48.50
2023-02-19T08:37:40.286Z,48.48
2023-02-19T08:40:43.054Z,48.58
2023-02-19T08:43:45.202Z,48.70
2023-02-19T08:46:47.426Z,48.82
2023-02-19T08:49:49.480Z,48.90
2023-02-19T08:52:51.637Z,48.66
2023-02-19T08:55:54.042Z,48.44
2023-02-19T08:58:56.088Z,48.43
2023-02-19T09:02:01.302Z,48.66
2023-02-19T09:05:03.581Z,49.05
2023-02-19T09:08:05.835Z,49.57
2023-02-19T09:11:07.948Z,49.40
2023-02-19T09:14:10.220Z,49.00
2023-02-19T09:17:12.432Z,48.91
2023-02-19T09:20:14.559Z,48.78
2023-02-19T09:23:16.669Z,48.76
2023-02-19T09:26:18.770Z,48.92
2023-02-19T09:29:24.029Z,49.29
2023-02-19T09:32:26.265Z,49.38
2023-02-19T09:35:28.367Z,50.05
2023-02-19T09:38:31.072Z,49.33
2023-02-19T09:41:39.061Z,49.02
2023-02-19T09:44:43.768Z,49.00
2023-02-19T09:47:46.039Z,48.85
2023-02-19T09:50:49.794Z,48.57
2023-02-19T09:53:53.776Z,48.39
2023-02-19T09:56:57.337Z,48.29
2023-02-19T10:00:11.835Z,48.21
2023-02-19T10:03:30.885Z,48.13
2023-02-19T10:06:34.104Z,48.09
2023-02-19T10:09:37.609Z,48.04
2023-02-19T10:12:43.208Z,47.98
2023-02-19T10:16:15.234Z,47.95
2023-02-19T10:19:17.790Z,47.96
2023-02-19T10:22:20.641Z,48.02
2023-02-19T10:25:22.767Z,48.15
2023-02-19T10:28:31.695Z,48.13
2023-02-19T10:31:36.957Z,48.13
2023-02-19T10:34:39.085Z,48.13
2023-02-19T10:37:50.495Z,48.29
2023-02-19T10:41:00.961Z,48.33
2023-02-19T10:44:22.116Z,48.43
2023-02-19T10:47:26.967Z,48.68
2023-02-19T10:50:32.652Z,48.74
2023-02-19T10:53:50.320Z,48.79
2023-02-19T10:56:52.455Z,48.82
2023-02-19T10:59:58.669Z,48.73
2023-02-19T11:03:21.233Z,48.68
2023-02-19T11:06:27.485Z,48.67
2023-02-19T11:09:38.607Z,48.57
2023-02-19T11:12:40.741Z,48.47
2023-02-19T11:15:43.821Z,48.47
2023-02-19T11:18:57.243Z,48.33
2023-02-19T11:22:00.816Z,48.35
2023-02-19T11:25:18.440Z,48.27
2023-02-19T11:28:28.942Z,48.28
2023-02-19T11:31:35.920Z,48.34
2023-02-19T11:34:39.151Z,48.46
2023-02-19T11:37:54.861Z,48.57
2023-02-19T11:41:06.419Z,48.59
2023-02-19T11:44:30.324Z,48.76
2023-02-19T11:47:48.678Z,48.75
2023-02-19T11:50:59.885Z,48.66
2023-02-19T11:54:43.443Z,48.67
2023-02-19T11:57:47.517Z,48.66
2023-02-19T12:01:03.476Z,48.61
2023-02-19T12:04:17.469Z,48.57
2023-02-19T12:08:01.485Z,48.57
2023-02-19T12:11:28.483Z,48.51
2023-02-19T12:14:47.867Z,48.47
2023-02-19T12:18:18.183Z,48.50
2023-02-19T12:21:38.846Z,48.47
2023-02-19T12:24:57.077Z,48.41
2023-02-19T12:28:03.949Z,48.41
2023-02-19T12:31:27.919Z,48.41
2023-02-19T12:34:51.306Z,48.41
2023-02-19T12:38:01.253Z,48.38
2023-02-19T12:41:25.549Z,48.34
2023-02-19T12:44:48.857Z,48.30
2023-02-19T12:48:18.593Z,48.30
2023-02-19T12:51:48.123Z,48.25
2023-02-19T12:54:55.804Z,48.24
2023-02-19T12:58:02.144Z,48.23
2023-02-19T13:01:05.420Z,48.22
2023-02-19T13:04:32.079Z,48.12
2023-02-19T13:07:44.491Z,48.07
2023-02-19T13:10:59.208Z,48.02
2023-02-19T13:14:11.917Z,47.99
2023-02-19T13:17:32.107Z,47.98
2023-02-19T13:20:42.768Z,47.98
2023-02-19T13:23:59.819Z,47.96
2023-02-19T13:27:33.650Z,47.99
2023-02-19T13:31:00.782Z,47.96
2023-02-19T13:34:17.535Z,47.98
2023-02-19T13:37:20.225Z,47.97
2023-02-19T13:40:33.110Z,47.99
2023-02-19T13:43:38.836Z,47.96
2023-02-19T13:46:45.893Z,47.98
2023-02-19T13:49:50.892Z,47.93
2023-02-19T13:52:55.034Z,47.94
2023-02-19T13:55:57.319Z,47.93
2023-02-19T13:59:35.371Z,47.95
2023-02-19T14:02:37.851Z,47.92
2023-02-19T14:06:06.646Z,47.88
2023-02-19T14:09:34.211Z,47.89
2023-02-19T14:12:37.508Z,47.88
2023-02-19T14:15:44.267Z,47.86
2023-02-19T14:18:47.202Z,47.86
2023-02-19T14:21:49.397Z,47.88
2023-02-19T14:24:53.890Z,47.89
2023-02-19T14:28:06.110Z,47.93
2023-02-19T14:31:36.242Z,47.93
2023-02-19T14:34:39.203Z,47.92
2023-02-19T14:37:42.479Z,47.93
2023-02-19T14:40:47.446Z,47.96
2023-02-19T14:43:52.455Z,47.96
2023-02-19T14:47:06.860Z,47.99
2023-02-19T14:50:13.491Z,48.00
2023-02-19T14:53:16.456Z,47.99
2023-02-19T14:56:28.686Z,48.02
2023-02-19T14:59:31.227Z,48.00
2023-02-19T15:02:41.544Z,48.03
2023-02-19T15:05:45.195Z,47.98
2023-02-19T15:08:50.727Z,48.21
2023-02-19T15:11:54.785Z,48.30
2023-02-19T15:15:01.499Z,48.38
2023-02-19T15:18:05.399Z,48.34
2023-02-19T15:21:08.139Z,48.65
2023-02-19T15:24:12.115Z,48.70
2023-02-19T15:27:23.039Z,48.63
2023-02-19T15:30:30.853Z,48.75
2023-02-19T15:33:33.617Z,48.79
2023-02-19T15:36:35.851Z,48.79
2023-02-19T15:39:46.362Z,48.66
2023-02-19T15:42:48.462Z,48.63
2023-02-19T15:45:53.621Z,48.61
2023-02-19T15:49:07.923Z,48.59
2023-02-19T15:52:16.995Z,48.53
2023-02-19T15:55:26.083Z,48.44
2023-02-19T15:58:36.425Z,48.40
2023-02-19T16:01:39.780Z,48.44
2023-02-19T16:04:44.308Z,48.40
2023-02-19T16:07:46.452Z,48.37
2023-02-19T16:10:56.802Z,48.34
2023-02-19T16:14:28.018Z,48.32
2023-02-19T16:17:30.145Z,48.31
2023-02-19T16:20:35.234Z,48.30
2023-02-19T16:23:45.663Z,48.27
2023-02-19T16:26:47.905Z,48.22
2023-02-19T16:29:52.215Z,48.22
2023-02-19T16:33:40.489Z,48.18
2023-02-19T16:36:43.495Z,48.17
2023-02-19T16:39:45.935Z,48.15
2023-02-19T16:42:51.180Z,48.15
2023-02-19T16:45:53.298Z,48.15
2023-02-19T16:48:55.378Z,48.13
2023-02-19T16:52:01.347Z,48.12
2023-02-19T16:55:12.297Z,48.09
2023-02-19T16:58:14.379Z,48.08
2023-02-19T17:01:16.908Z,48.03
2023-02-19T17:04:19.232Z,48.06
2023-02-19T17:07:22.264Z,48.03
2023-02-19T17:10:26.788Z,48.03
2023-02-19T17:13:29.597Z,48.04
2023-02-19T17:16:40.252Z,47.99
2023-02-19T17:19:42.601Z,48.01
2023-02-19T17:22:45.376Z,48.02
2023-02-19T17:25:47.408Z,47.92
2023-02-19T17:28:49.745Z,47.97
2023-02-19T17:31:52.042Z,47.98
2023-02-19T17:34:54.177Z,47.95
2023-02-19T17:37:56.334Z,47.95
2023-02-19T17:40:58.342Z,47.92
2023-02-19T17:44:00.412Z,47.95
2023-02-19T17:47:02.608Z,47.94
2023-02-19T17:50:06.828Z,47.94
2023-02-19T17:53:09.535Z,47.92
2023-02-19T17:56:16.711Z,47.89
2023-02-19T17:59:18.730Z,47.77
2023-02-19T18:02:21.072Z,47.65
2023-02-19T18:05:23.800Z,47.73
2023-02-19T18:08:25.831Z,44.52
2023-02-19T18:11:28.039Z,45.19
2023-02-19T18:14:31.112Z,45.62
2023-02-19T18:17:33.525Z,46.15
2023-02-19T18:20:35.693Z,46.47
2023-02-19T18:23:38.099Z,46.39
2023-02-19T18:26:41.124Z,46.64
2023-02-19T18:29:43.437Z,46.61
2023-02-19T18:32:49.576Z,46.74
2023-02-19T18:35:51.664Z,46.96
2023-02-19T18:38:53.792Z,46.99
2023-02-19T18:41:57.798Z,47.04
2023-02-19T18:44:59.973Z,47.12
2023-02-19T18:48:02.058Z,47.17
2023-02-19T18:51:04.361Z,47.25
2023-02-19T18:54:07.804Z,47.25
2023-02-19T18:57:09.942Z,47.31
2023-02-19T19:00:20.526Z,47.31
2023-02-19T19:03:22.617Z,47.40
2023-02-19T19:06:24.687Z,47.42
2023-02-19T19:09:26.789Z,47.50
2023-02-19T19:12:28.998Z,47.53
2023-02-19T19:15:31.179Z,47.57
2023-02-19T19:18:38.052Z,47.63
2023-02-19T19:21:40.144Z,47.66
2023-02-19T19:24:43.185Z,47.70
2023-02-19T19:27:45.905Z,47.73
2023-02-19T19:30:48.030Z,47.73
2023-02-19T19:33:50.239Z,47.74
2023-02-19T19:36:52.497Z,47.78
2023-02-19T19:39:54.639Z,47.83
2023-02-19T19:42:56.740Z,47.83
2023-02-19T19:45:59.356Z,47.89
2023-02-19T19:49:01.470Z,47.87
2023-02-19T19:52:03.635Z,47.89
2023-02-19T19:55:07.293Z,47.89
2023-02-19T19:58:09.432Z,47.92
2023-02-19T20:01:11.887Z,47.96
2023-02-19T20:04:14.267Z,47.96
2023-02-19T20:07:16.542Z,47.94
2023-02-19T20:10:19.927Z,47.95
2023-02-19T20:13:24.439Z,47.96
2023-02-19T20:16:28.307Z,48.01
2023-02-19T20:19:30.488Z,48.01
2023-02-19T20:22:32.622Z,48.03
2023-02-19T20:25:34.773Z,48.02
2023-02-19T20:28:38.397Z,48.03
2023-02-19T20:31:47.257Z,48.05
2023-02-19T20:34:49.549Z,48.05
2023-02-19T20:37:52.215Z,48.12
2023-02-19T20:40:54.661Z,48.11
2023-02-19T20:43:56.844Z,48.08
2023-02-19T20:46:59.671Z,48.13
2023-02-19T20:50:02.149Z,48.12
2023-02-19T20:53:04.325Z,48.13
2023-02-19T20:56:06.718Z,48.13
2023-02-19T20:59:09.069Z,48.17
2023-02-19T21:02:20.613Z,48.15
2023-02-19T21:05:22.801Z,48.14
2023-02-19T21:08:24.981Z,48.12
2023-02-19T21:11:27.827Z,48.12
2023-02-19T21:14:29.936Z,48.21
2023-02-19T21:17:32.295Z,48.24
2023-02-19T21:20:34.880Z,48.29
2023-02-19T21:23:37.055Z,48.36
2023-02-19T21:26:40.601Z,48.41
2023-02-19T21:29:42.677Z,48.40
2023-02-19T21:32:44.776Z,48.44
2023-02-19T21:35:46.881Z,48.42
2023-02-19T21:38:49.869Z,48.34
2023-02-19T21:41:52.083Z,48.34
2023-02-19T21:44:54.271Z,48.30
2023-02-19T21:47:56.637Z,48.29
2023-02-19T21:50:58.696Z,48.31
2023-02-19T21:54:01.385Z,48.37
2023-02-19T21:57:04.300Z,48.32
2023-02-19T22:00:08.421Z,48.34
2023-02-19T22:03:16.158Z,48.37
2023-02-19T22:06:21.311Z,48.37
2023-02-19T22:09:23.547Z,48.34
2023-02-19T22:12:25.572Z,48.33
2023-02-19T22:15:27.601Z,48.29
2023-02-19T22:18:29.896Z,48.26
2023-02-19T22:21:32.590Z,48.26
2023-02-19T22:24:34.725Z,48.24
2023-02-19T22:27:37.102Z,48.28
2023-02-19T22:30:40.053Z,48.30
2023-02-19T22:33:42.274Z,48.28
2023-02-19T22:36:44.719Z,48.30
2023-02-19T22:39:46.773Z,48.28
2023-02-19T22:42:48.952Z,48.28
2023-02-19T22:45:51.021Z,48.26
2023-02-19T22:48:53.213Z,48.26
2023-02-19T22:51:58.774Z,48.28
2023-02-19T22:55:00.911Z,48.28
2023-02-19T22:58:02.996Z,48.25
2023-02-19T23:01:05.204Z,48.26
2023-02-19T23:04:07.433Z,48.29
2023-02-19T23:07:10.104Z,48.25
2023-02-19T23:10:13.527Z,48.24
2023-02-19T23:13:15.730Z,48.28
2023-02-19T23:16:18.236Z,48.24
2023-02-19T23:19:20.546Z,48.28
2023-02-19T23:22:22.736Z,48.24
2023-02-19T23:25:24.829Z,48.24
2023-02-19T23:28:26.987Z,48.24
2023-02-19T23:31:29.129Z,48.28
2023-02-19T23:34:31.250Z,48.24
2023-02-19T23:37:33.412Z,48.27
2023-02-19T23:40:35.838Z,48.29
2023-02-19T23:43:38.198Z,48.29
2023-02-19T23:46:40.295Z,48.21
2023-02-19T23:49:42.694Z,48.28
2023-02-19T23:52:44.786Z,48.25
2023-02-19T23:55:46.832Z,48.28
2023-02-19T23:58:48.905Z,48.26
